createdAt,value
2022-10-17T00:01:16.878Z,101823.28
2022-10-17T00:03:43.743Z,101827.97
2022-10-17T00:06:14.630Z,101831.00
2022-10-17T00:08:42.757Z,101831.13
2022-10-17T00:11:17.234Z,101835.00
2022-10-17T00:13:45.899Z,101835.81
2022-10-17T00:16:12.842Z,101841.53
2022-10-17T00:18:39.896Z,101843.19
2022-10-17T00:21:06.966Z,101838.84
2022-10-17T00:23:34.155Z,101825.13
2022-10-17T00:26:05.983Z,101824.06
2022-10-17T00:28:34.154Z,101814.69
2022-10-17T00:31:04.659Z,101819.03
2022-10-17T00:33:34.262Z,101813.78
2022-10-17T00:36:18.326Z,101833.56
2022-10-17T00:38:48.251Z,101832.41
2022-10-17T00:41:19.091Z,101841.53
2022-10-17T00:44:08.120Z,101823.97
2022-10-17T00:46:37.778Z,101818.72
2022-10-17T00:49:11.441Z,101821.66
2022-10-17T00:51:44.253Z,101819.16
2022-10-17T00:54:13.493Z,101820.69
2022-10-17T00:56:40.782Z,101830.41
2022-10-17T00:59:11.487Z,101823.97
2022-10-17T01:01:41.907Z,101825.59
2022-10-17T01:04:10.083Z,101838.03
2022-10-17T01:06:39.583Z,101845.09
2022-10-17T01:09:06.895Z,101845.44
2022-10-17T01:12:04.548Z,101840.03
2022-10-17T01:15:10.553Z,101833.34
2022-10-17T01:17:55.226Z,101836.06
2022-10-17T01:21:02.448Z,101818.56
2022-10-17T01:24:21.144Z,101819.88
2022-10-17T01:27:10.497Z,101814.16
2022-10-17T01:30:10.028Z,101814.38
2022-10-17T01:32:58.419Z,101802.06
2022-10-17T01:35:31.317Z,101809.34
2022-10-17T01:38:12.775Z,101807.69
2022-10-17T01:40:57.578Z,101799.28
2022-10-17T01:43:41.972Z,101800.00
2022-10-17T01:46:35.350Z,101798.59
2022-10-17T01:49:05.686Z,101801.19
2022-10-17T01:52:09.812Z,101799.78
2022-10-17T01:54:46.915Z,101798.63
2022-10-17T01:57:49.870Z,101800.16
2022-10-17T02:00:23.774Z,101797.91
2022-10-17T02:03:00.901Z,101789.72
2022-10-17T02:05:41.846Z,101796.66
2022-10-17T02:08:10.786Z,101799.56
2022-10-17T02:10:50.292Z,101800.88
2022-10-17T02:14:00.558Z,101802.16
2022-10-17T02:16:48.479Z,101803.09
2022-10-17T02:19:44.304Z,101812.47
2022-10-17T02:22:42.211Z,101805.09
2022-10-17T02:25:39.035Z,101801.00
2022-10-17T02:28:40.402Z,101801.47
2022-10-17T02:31:16.607Z,101801.69
2022-10-17T02:34:01.294Z,101805.81
2022-10-17T02:36:40.069Z,101795.84
2022-10-17T02:39:09.342Z,101796.31
2022-10-17T02:41:38.600Z,101786.59
2022-10-17T02:44:07.704Z,101793.63
2022-10-17T02:46:35.981Z,101795.03
2022-10-17T02:49:07.701Z,101790.22
2022-10-17T02:51:57.938Z,101787.78
2022-10-17T02:54:50.921Z,101788.59
2022-10-17T02:57:31.985Z,101785.31
2022-10-17T03:00:01.763Z,101779.69
2022-10-17T03:02:38.492Z,101792.09
2022-10-17T03:05:07.859Z,101789.88
2022-10-17T03:07:34.903Z,101786.72
2022-10-17T03:10:02.174Z,101789.41
2022-10-17T03:12:30.424Z,101787.53
2022-10-17T03:14:58.351Z,101782.63
2022-10-17T03:17:25.645Z,101786.94
2022-10-17T03:19:52.940Z,101782.63
2022-10-17T03:25:11.332Z,101782.63
2022-10-17T03:27:38.339Z,101792.09
2022-10-17T03:30:06.181Z,101787.41
2022-10-17T03:32:34.647Z,101795.84
2022-10-17T03:35:02.177Z,101790.56
2022-10-17T03:37:29.907Z,101786.34
2022-10-17T03:39:57.035Z,101776.16
2022-10-17T03:42:24.090Z,101777.31
2022-10-17T03:44:51.665Z,101766.78
2022-10-17T03:47:18.654Z,101778.25
2022-10-17T03:49:46.143Z,101787.97
2022-10-17T03:52:15.755Z,101779.66
2022-10-17T03:54:42.665Z,101773.69
2022-10-17T03:57:09.655Z,101778.00
2022-10-17T03:59:36.906Z,101770.41
2022-10-17T04:02:09.746Z,101770.97
2022-10-17T04:04:36.668Z,101776.38
2022-10-17T04:07:03.961Z,101778.50
2022-10-17T04:09:30.925Z,101773.00
2022-10-17T04:12:06.666Z,101766.19
2022-10-17T04:14:36.841Z,101764.34
2022-10-17T04:17:04.374Z,101766.44
2022-10-17T04:19:32.526Z,101761.53
2022-10-17T04:21:59.682Z,101761.53
2022-10-17T04:24:28.841Z,101751.56
2022-10-17T04:27:10.388Z,101755.22
2022-10-17T04:29:41.291Z,101758.72
2022-10-17T04:32:17.147Z,101761.06
2022-10-17T04:35:04.866Z,101753.00
2022-10-17T04:37:32.578Z,101755.09
2022-10-17T04:40:02.646Z,101754.75
2022-10-17T04:42:32.749Z,101763.75
2022-10-17T04:45:25.117Z,101752.88
2022-10-17T04:47:57.680Z,101754.75
2022-10-17T04:50:25.104Z,101745.28
2022-10-17T04:53:11.950Z,101748.78
2022-10-17T04:55:39.708Z,101761.44
2022-10-17T04:58:06.877Z,101755.00
2022-10-17T05:00:33.970Z,101756.41
2022-10-17T05:03:05.586Z,101763.66
2022-10-17T05:05:33.385Z,101765.28
2022-10-17T05:08:01.683Z,101757.56
2022-10-17T05:10:41.051Z,101761.66
2022-10-17T05:13:09.276Z,101755.44
2022-10-17T05:15:37.968Z,101764.13
2022-10-17T05:18:07.240Z,101763.63
2022-10-17T05:20:34.874Z,101760.13
2022-10-17T05:23:02.595Z,101769.03
2022-10-17T05:25:34.915Z,101762.59
2022-10-17T05:28:01.976Z,101766.91
2022-10-17T05:30:30.643Z,101765.03
2022-10-17T05:33:01.387Z,101777.22
2022-10-17T05:35:28.739Z,101776.16
2022-10-17T05:37:56.111Z,101761.06
2022-10-17T05:40:25.188Z,101763.28
2022-10-17T05:42:53.811Z,101769.25
2022-10-17T05:45:22.560Z,101765.25
2022-10-17T05:47:49.598Z,101759.63
2022-10-17T05:50:17.003Z,101768.28
2022-10-17T05:53:02.137Z,101760.22
2022-10-17T05:55:29.162Z,101767.56
2022-10-17T05:57:58.454Z,101771.69
2022-10-17T06:00:28.907Z,101777.63
2022-10-17T06:02:58.418Z,101779.88
2022-10-17T06:05:25.610Z,101781.25
2022-10-17T06:07:55.981Z,101784.88
2022-10-17T06:10:25.313Z,101782.75
2022-10-17T06:12:53.323Z,101785.56
2022-10-17T06:15:20.905Z,101790.22
2022-10-17T06:17:54.366Z,101790.34
2022-10-17T06:20:21.578Z,101801.50
2022-10-17T06:22:48.497Z,101809.44
2022-10-17T06:25:23.846Z,101806.03
2022-10-17T06:27:51.302Z,101812.13
2022-10-17T06:30:18.350Z,101806.00
2022-10-17T06:32:45.984Z,101817.22
2022-10-17T06:35:13.047Z,101805.22
2022-10-17T06:37:41.846Z,101808.38
2022-10-17T06:40:12.320Z,101818.19
2022-10-17T06:42:41.054Z,101821.06
2022-10-17T06:45:23.767Z,101814.22
2022-10-17T06:48:13.883Z,101809.59
2022-10-17T06:50:51.744Z,101820.31
2022-10-17T06:53:30.914Z,101823.50
2022-10-17T06:56:24.069Z,101820.75
2022-10-17T06:59:10.913Z,101822.06
2022-10-17T07:01:43.091Z,101834.16
2022-10-17T07:04:14.050Z,101831.09
2022-10-17T07:06:41.556Z,101820.47
2022-10-17T07:09:16.929Z,101822.53
2022-10-17T07:11:44.899Z,101814.63
2022-10-17T07:14:11.942Z,101810.50
2022-10-17T07:16:38.918Z,101813.38
2022-10-17T07:19:16.250Z,101818.13
2022-10-17T07:21:43.119Z,101821.91
2022-10-17T07:24:11.651Z,101829.41
2022-10-17T07:26:41.440Z,101830.19
2022-10-17T07:29:12.032Z,101820.06
2022-10-17T07:31:45.656Z,101828.66
2022-10-17T07:34:12.895Z,101823.38
2022-10-17T07:36:39.832Z,101829.75
2022-10-17T07:39:08.196Z,101833.06
2022-10-17T07:41:36.778Z,101830.47
2022-10-17T07:44:04.851Z,101831.91
2022-10-17T07:46:40.618Z,101821.41
2022-10-17T07:49:07.616Z,101839.09
2022-10-17T07:51:34.752Z,101829.06
2022-10-17T07:54:01.807Z,101822.81
2022-10-17T07:56:29.749Z,101815.94
2022-10-17T07:58:59.897Z,101819.34
2022-10-17T08:01:29.880Z,101819.16
2022-10-17T08:03:57.268Z,101819.25
2022-10-17T08:06:25.528Z,101810.53
2022-10-17T08:08:53.383Z,101802.59
2022-10-17T08:11:23.190Z,101812.59
2022-10-17T08:13:50.636Z,101809.81
2022-10-17T08:16:18.828Z,101812.22
2022-10-17T08:18:46.833Z,101815.19
2022-10-17T08:21:15.372Z,101803.91
2022-10-17T08:23:43.386Z,101817.19
2022-10-17T08:26:13.676Z,101807.22
2022-10-17T08:28:42.228Z,101802.03
2022-10-17T08:31:16.421Z,101797.88
2022-10-17T08:33:45.190Z,101796.19
2022-10-17T08:36:17.908Z,101789.34
2022-10-17T08:38:51.669Z,101795.72
2022-10-17T08:41:47.992Z,101796.53
2022-10-17T08:44:41.002Z,101787.69
2022-10-17T08:47:30.097Z,101789.56
2022-10-17T08:50:04.177Z,101785.06
2022-10-17T08:52:52.082Z,101774.78
2022-10-17T08:55:45.691Z,101762.50
2022-10-17T08:58:41.834Z,101776.38
2022-10-17T09:01:51.297Z,101775.50
2022-10-17T09:11:26.342Z,101774.75
2022-10-17T09:14:38.952Z,101767.28
2022-10-17T09:17:45.158Z,101770.38
2022-10-17T09:20:31.121Z,101761.81
2022-10-17T09:23:17.728Z,101768.03
2022-10-17T09:25:50.897Z,101786.47
2022-10-17T09:28:28.370Z,101770.13
2022-10-17T09:31:03.915Z,101761.94
2022-10-17T09:33:57.655Z,101762.44
2022-10-17T09:36:31.966Z,101778.13
2022-10-17T09:39:04.096Z,101766.28
2022-10-17T09:44:47.738Z,101763.91
2022-10-17T09:47:23.386Z,101760.22
2022-10-17T09:52:48.869Z,101747.72
2022-10-17T09:55:41.854Z,101744.31
2022-10-17T09:58:11.236Z,101753.31
2022-10-17T10:00:45.173Z,101753.31
2022-10-17T10:03:27.645Z,101738.56
2022-10-17T10:06:17.838Z,101741.03
2022-10-17T10:09:00.512Z,101742.28
2022-10-17T10:11:52.522Z,101736.66
2022-10-17T10:14:33.419Z,101740.44
2022-10-17T10:17:03.648Z,101733.47
2022-10-17T10:19:37.403Z,101730.72
2022-10-17T10:22:15.170Z,101731.16
2022-10-17T10:24:42.493Z,101736.75
2022-10-17T10:27:18.471Z,101734.16
2022-10-17T10:29:53.314Z,101725.22
2022-10-17T10:32:26.495Z,101725.94
2022-10-17T10:35:18.869Z,101729.88
2022-10-17T10:37:51.996Z,101732.19
2022-10-17T10:40:25.286Z,101724.53
2022-10-17T10:42:59.230Z,101736.50
2022-10-17T10:45:48.465Z,101729.44
2022-10-17T10:48:32.026Z,101717.84
2022-10-17T10:54:44.164Z,101717.72
2022-10-17T10:57:20.583Z,101716.28
2022-10-17T11:00:14.273Z,101724.91
2022-10-17T11:03:16.467Z,101705.84
2022-10-17T11:05:54.612Z,101708.19
2022-10-17T11:08:35.428Z,101711.53
2022-10-17T11:11:13.712Z,101713.03
2022-10-17T11:13:57.422Z,101714.13
2022-10-17T11:17:01.258Z,101707.06
2022-10-17T11:20:39.587Z,101699.09
2022-10-17T11:23:31.314Z,101691.00
2022-10-17T11:26:04.534Z,101690.38
2022-10-17T11:28:31.948Z,101675.94
2022-10-17T11:31:09.651Z,101689.59
2022-10-17T11:33:49.618Z,101678.97
2022-10-17T11:36:26.187Z,101683.78
2022-10-17T11:39:00.388Z,101673.94
2022-10-17T11:41:50.517Z,101675.38
2022-10-17T11:44:35.844Z,101674.63
2022-10-17T11:47:33.128Z,101672.19
2022-10-17T11:53:46.524Z,101671.16
2022-10-17T11:56:41.888Z,101671.53
2022-10-17T11:59:40.656Z,101664.78
2022-10-17T12:02:29.204Z,101666.97
2022-10-17T12:05:20.495Z,101674.34
2022-10-17T12:07:53.723Z,101685.38
2022-10-17T12:10:54.384Z,101672.91
2022-10-17T12:13:33.594Z,101664.59
2022-10-17T12:16:19.275Z,101676.06
2022-10-17T12:19:02.487Z,101663.56
2022-10-17T12:21:56.656Z,101661.72
2022-10-17T12:24:40.296Z,101666.41
2022-10-17T12:27:48.061Z,101666.97
2022-10-17T12:31:06.481Z,101655.78
2022-10-17T12:34:02.625Z,101660.03
2022-10-17T12:36:29.394Z,101657.31
2022-10-17T12:39:01.977Z,101658.09
2022-10-17T12:41:52.409Z,101653.09
2022-10-17T12:44:21.934Z,101648.00
2022-10-17T12:46:58.974Z,101642.31
2022-10-17T12:49:48.391Z,101639.69
2022-10-17T12:52:32.833Z,101635.28
2022-10-17T12:55:13.723Z,101644.69
2022-10-17T12:58:05.347Z,101647.06
2022-10-17T13:00:43.816Z,101645.78
2022-10-17T13:03:22.495Z,101643.28
2022-10-17T13:05:56.895Z,101638.13
2022-10-17T13:08:44.874Z,101630.81
2022-10-17T13:11:13.765Z,101641.59
2022-10-17T13:13:48.599Z,101627.75
2022-10-17T13:16:31.700Z,101620.78
2022-10-17T13:19:00.630Z,101628.44
2022-10-17T13:21:29.085Z,101636.06
2022-10-17T13:23:56.600Z,101655.31
2022-10-17T13:26:27.321Z,101646.25
2022-10-17T13:29:06.930Z,101637.38
2022-10-17T13:31:38.074Z,101654.69
2022-10-17T13:34:16.662Z,101646.25
2022-10-17T13:36:48.864Z,101640.47
2022-10-17T13:39:23.168Z,101654.44
2022-10-17T13:41:56.907Z,101645.13
2022-10-17T13:44:26.572Z,101656.22
2022-10-17T13:46:54.087Z,101644.84
2022-10-17T13:49:37.298Z,101646.00
2022-10-17T13:52:06.670Z,101645.97
2022-10-17T13:54:46.751Z,101652.84
2022-10-17T13:57:24.356Z,101661.59
2022-10-17T14:02:51.303Z,101659.91
2022-10-17T14:05:21.087Z,101672.41
2022-10-17T14:08:11.280Z,101670.25
2022-10-17T14:10:42.081Z,101668.22
2022-10-17T14:13:30.388Z,101662.31
2022-10-17T14:16:02.001Z,101678.75
2022-10-17T14:18:36.432Z,101681.94
2022-10-17T14:24:13.165Z,101677.63
2022-10-17T14:26:54.935Z,101674.34
2022-10-17T14:29:25.485Z,101666.69
2022-10-17T14:32:01.944Z,101678.59
2022-10-17T14:34:37.676Z,101688.75
2022-10-17T14:37:29.210Z,101688.66
2022-10-17T14:40:00.556Z,101686.47
2022-10-17T14:42:27.496Z,101680.88
2022-10-17T14:45:00.408Z,101687.56
2022-10-17T14:47:42.597Z,101699.31
2022-10-17T14:50:12.881Z,101698.22
2022-10-17T14:52:40.707Z,101690.63
2022-10-17T14:55:26.904Z,101700.88
2022-10-17T14:57:54.273Z,101691.50
2022-10-17T15:00:22.847Z,101703.03
2022-10-17T15:02:51.931Z,101703.22
2022-10-17T15:05:20.162Z,101705.00
2022-10-17T15:07:47.086Z,101699.03
2022-10-17T15:10:32.945Z,101702.59
2022-10-17T15:13:16.405Z,101697.59
2022-10-17T15:15:51.919Z,101695.34
2022-10-17T15:18:19.424Z,101696.94
2022-10-17T15:20:46.519Z,101694.81
2022-10-17T15:23:13.766Z,101705.94
2022-10-17T15:25:40.696Z,101704.00
2022-10-17T15:28:10.912Z,101710.78
2022-10-17T15:30:37.874Z,101707.06
2022-10-17T15:33:05.230Z,101708.19
2022-10-17T15:35:32.208Z,101711.91
2022-10-17T15:37:59.209Z,101702.50
2022-10-17T15:40:29.417Z,101701.31
2022-10-17T15:42:56.589Z,101703.56
2022-10-17T15:45:24.173Z,101704.16
2022-10-17T15:48:04.641Z,101711.06
2022-10-17T15:50:32.410Z,101719.69
2022-10-17T15:52:59.857Z,101715.91
2022-10-17T15:55:27.776Z,101720.66
2022-10-17T15:57:54.714Z,101719.81
2022-10-17T16:00:24.228Z,101728.44
2022-10-17T16:02:51.445Z,101728.66
2022-10-17T16:05:29.275Z,101724.00
2022-10-17T16:07:57.731Z,101723.75
2022-10-17T16:10:25.985Z,101725.91
2022-10-17T16:12:53.110Z,101725.34
2022-10-17T16:15:27.990Z,101734.28
2022-10-17T16:17:57.347Z,101724.19
2022-10-17T16:20:25.031Z,101727.41
2022-10-17T16:22:59.697Z,101729.53
2022-10-17T16:25:29.363Z,101726.81
2022-10-17T16:27:58.873Z,101729.13
2022-10-17T16:30:29.087Z,101731.28
2022-10-17T16:33:00.593Z,101736.13
2022-10-17T16:35:35.006Z,101745.31
2022-10-17T16:38:07.550Z,101734.06
2022-10-17T16:40:34.980Z,101738.28
2022-10-17T16:43:02.023Z,101745.53
2022-10-17T16:45:28.974Z,101746.75
2022-10-17T16:47:56.011Z,101754.00
2022-10-17T16:50:23.245Z,101748.91
2022-10-17T16:52:50.628Z,101745.53
2022-10-17T16:55:18.891Z,101744.78
2022-10-17T16:57:48.624Z,101753.16
2022-10-17T17:00:16.856Z,101749.16
2022-10-17T17:02:44.732Z,101758.03
2022-10-17T17:05:11.975Z,101742.38
2022-10-17T17:07:39.443Z,101767.25
2022-10-17T17:10:07.121Z,101769.81
2022-10-17T17:12:35.998Z,101757.41
2022-10-17T17:15:04.328Z,101771.09
2022-10-17T17:17:48.689Z,101766.88
2022-10-17T17:20:17.850Z,101769.22
2022-10-17T17:22:44.703Z,101761.38
2022-10-17T17:25:11.653Z,101757.66
2022-10-17T17:27:38.792Z,101759.94
2022-10-17T17:30:06.449Z,101759.75
2022-10-17T17:32:33.352Z,101753.84
2022-10-17T17:35:00.366Z,101764.00
2022-10-17T17:40:18.802Z,101765.47
2022-10-17T17:42:45.856Z,101776.19
2022-10-17T17:45:12.906Z,101775.47
2022-10-17T17:47:40.142Z,101782.34
2022-10-17T17:50:07.486Z,101778.09
2022-10-17T17:52:34.672Z,101780.34
2022-10-17T17:55:01.541Z,101775.22
2022-10-17T17:57:30.142Z,101774.19
2022-10-17T17:59:57.032Z,101782.41
2022-10-17T18:02:23.944Z,101789.25
2022-10-17T18:04:50.886Z,101795.31
2022-10-17T18:07:17.952Z,101797.53
2022-10-17T18:09:44.805Z,101795.13
2022-10-17T18:12:12.051Z,101802.25
2022-10-17T18:14:38.953Z,101804.22
2022-10-17T18:17:05.975Z,101804.22
2022-10-17T18:19:33.215Z,101811.06
2022-10-17T18:22:00.037Z,101808.63
2022-10-17T18:24:27.052Z,101802.63
2022-10-17T18:26:58.854Z,101802.38
2022-10-17T18:29:26.995Z,101810.81
2022-10-17T18:31:54.167Z,101814.91
2022-10-17T18:34:21.218Z,101812.50
2022-10-17T18:36:48.240Z,101817.13
2022-10-17T18:39:15.334Z,101810.59
2022-10-17T18:41:42.883Z,101813.88
2022-10-17T18:44:12.482Z,101817.69
2022-10-17T18:46:41.449Z,101823.66
2022-10-17T18:49:14.956Z,101823.38
2022-10-17T18:51:42.820Z,101831.78
2022-10-17T18:54:16.978Z,101839.94
2022-10-17T18:56:44.971Z,101835.59
2022-10-17T18:59:11.841Z,101838.84
2022-10-17T19:01:39.070Z,101844.81
2022-10-17T19:04:06.016Z,101853.22
2022-10-17T19:06:33.309Z,101846.69
2022-10-17T19:09:03.053Z,101852.94
2022-10-17T19:11:32.122Z,101856.16
2022-10-17T19:14:03.941Z,101857.53
2022-10-17T19:16:37.777Z,101864.03
2022-10-17T19:19:23.359Z,101866.16
2022-10-17T19:21:50.610Z,101878.59
2022-10-17T19:24:25.417Z,101884.00
2022-10-17T19:26:56.923Z,101878.00
2022-10-17T19:29:28.956Z,101880.72
2022-10-17T19:34:28.228Z,101875.25
2022-10-17T19:36:55.924Z,101870.56
2022-10-17T19:39:24.678Z,101876.25
2022-10-17T19:41:51.741Z,101870.56
2022-10-17T19:44:19.079Z,101868.09
2022-10-17T19:46:49.006Z,101878.41
2022-10-17T19:49:16.612Z,101871.91
2022-10-17T19:51:44.489Z,101876.47
2022-10-17T19:54:11.513Z,101884.88
2022-10-17T19:56:38.515Z,101881.63
2022-10-17T19:59:07.995Z,101881.06
2022-10-17T20:01:38.926Z,101883.22
2022-10-17T20:04:08.493Z,101881.28
2022-10-17T20:06:35.497Z,101883.72
2022-10-17T20:09:04.439Z,101890.50
2022-10-17T20:11:31.792Z,101891.31
2022-10-17T20:14:01.771Z,101897.81
2022-10-17T20:16:33.377Z,101895.09
2022-10-17T20:19:09.029Z,101899.69
2022-10-17T20:21:37.519Z,101908.63
2022-10-17T20:24:08.088Z,101906.66
2022-10-17T20:26:38.517Z,101908.81
2022-10-17T20:29:12.266Z,101919.91
2022-10-17T20:31:41.018Z,101912.56
2022-10-17T20:34:10.147Z,101914.19
2022-10-17T20:36:37.512Z,101920.69
2022-10-17T20:39:05.919Z,101926.38
2022-10-17T20:41:33.785Z,101918.50
2022-10-17T20:44:00.602Z,101917.13
2022-10-17T20:49:19.178Z,101925.81
2022-10-17T20:51:46.723Z,101931.75
2022-10-17T20:54:13.768Z,101933.91
2022-10-17T20:56:40.773Z,101931.72
2022-10-17T20:59:16.080Z,101943.34
2022-10-17T21:01:45.044Z,101933.53
2022-10-17T21:04:45.418Z,101934.88
2022-10-17T21:07:00.147Z,101933.75
2022-10-17T21:09:27.003Z,101934.81
2022-10-17T21:11:56.805Z,101941.59
2022-10-17T21:14:25.372Z,101943.13
2022-10-17T21:16:52.976Z,101956.38
2022-10-17T21:19:21.926Z,101950.66
2022-10-17T21:21:49.028Z,101948.72
2022-10-17T21:24:17.988Z,101952.75
2022-10-17T21:26:47.821Z,101951.94
2022-10-17T21:29:14.776Z,101962.47
2022-10-17T21:31:44.118Z,101961.66
2022-10-17T21:34:18.519Z,101957.00
2022-10-17T21:36:45.997Z,101962.13
2022-10-17T21:39:14.457Z,101944.19
2022-10-17T21:41:42.809Z,101958.78
2022-10-17T21:44:17.006Z,101955.22
2022-10-17T21:46:44.800Z,101960.53
2022-10-17T21:49:13.789Z,101952.94
2022-10-17T21:51:41.579Z,101958.53
2022-10-17T21:54:08.692Z,101961.50
2022-10-17T21:56:36.714Z,101969.31
2022-10-17T21:59:04.870Z,101963.84
2022-10-17T22:01:38.358Z,101969.19
2022-10-17T22:04:08.952Z,101980.53
2022-10-17T22:06:40.797Z,101983.47
2022-10-17T22:09:14.268Z,101990.47
2022-10-17T22:11:41.791Z,101984.72
2022-10-17T22:14:14.503Z,101983.81
2022-10-17T22:16:42.128Z,101982.44
2022-10-17T22:19:11.134Z,101984.00
2022-10-17T22:21:38.304Z,101989.91
2022-10-17T22:24:08.888Z,101994.19
2022-10-17T22:26:37.910Z,101999.84
2022-10-17T22:29:07.082Z,101997.91
2022-10-17T22:31:35.112Z,101998.66
2022-10-17T22:34:02.956Z,101997.00
2022-10-17T22:36:31.492Z,101987.50
2022-10-17T22:38:58.387Z,102002.16
2022-10-17T22:41:25.730Z,101997.81
2022-10-17T22:43:52.617Z,101997.00
2022-10-17T22:46:19.837Z,101995.13
2022-10-17T22:48:46.871Z,101996.75
2022-10-17T22:51:14.089Z,101997.56
2022-10-17T22:53:41.394Z,101999.47
2022-10-17T22:56:33.205Z,101997.56
2022-10-17T22:59:00.225Z,101992.16
2022-10-17T23:01:27.288Z,102002.47
2022-10-17T23:06:45.564Z,101996.00
2022-10-17T23:09:13.653Z,101998.72
2022-10-17T23:11:40.487Z,101999.03
2022-10-17T23:14:07.553Z,101989.28
2022-10-17T23:16:34.426Z,101999.59
2022-10-17T23:19:01.594Z,102005.09
2022-10-17T23:21:28.414Z,101999.16
2022-10-17T23:23:55.456Z,102003.50
2022-10-17T23:26:22.320Z,102002.19
2022-10-17T23:28:54.638Z,102007.97
2022-10-17T23:31:22.178Z,102000.66
2022-10-17T23:33:50.147Z,102005.31
2022-10-17T23:36:20.098Z,102005.63
2022-10-17T23:38:48.243Z,102013.00
2022-10-17T23:41:16.165Z,102007.09
2022-10-17T23:43:43.834Z,102003.31
2022-10-17T23:46:11.401Z,102000.66
2022-10-17T23:48:39.285Z,102000.41
2022-10-17T23:51:07.318Z,102004.19
2022-10-17T23:53:35.418Z,102010.47
2022-10-17T23:56:02.506Z,102009.16
2022-10-17T23:58:29.536Z,102000.78
